Time;durP1;ratioP1;P1;durP2;ratioP2;P2;SDS_P1;SDS_P2;PMS_P1;PMS_P2;Temp;Humidity;BMP_temperature;BMP_pressure;BME280_temperature;BME280_humidity;BME280_pressure;Samples;Min_cycle;Max_cycle;Signal;HPM_P1;HPM_P2
2023/06/10 00:03:47;;;;;;;4.03;3.13;;;;;;;;;;12876814;23;20024;-86
2023/06/10 00:08:53;;;;;;;3.63;2.97;;;;;;;;;;12875238;23;20024;-87
2023/06/10 00:13:56;;;;;;;6.20;3.13;;;;;;;;;;12879523;22;20283;-87
2023/06/10 00:19:01;;;;;;;4.57;2.70;;;;;;;;;;12880458;23;20256;-86
2023/06/10 00:24:07;;;;;;;3.20;2.83;;;;;;;;;;12879580;22;20070;-87
2023/06/10 00:29:10;;;;;;;3.67;3.30;;;;;;;;;;12907651;23;20345;-87
2023/06/10 00:34:14;;;;;;;4.32;3.13;;;;;;;;;;12912083;22;20391;-87
2023/06/10 00:39:18;;;;;;;5.70;3.20;;;;;;;;;;12879661;23;20097;-87
2023/06/10 00:44:22;;;;;;;3.80;2.75;;;;;;;;;;12880588;22;20051;-87
2023/06/10 00:49:26;;;;;;;4.50;3.08;;;;;;;;;;12906541;23;20852;-86
2023/06/10 00:54:31;;;;;;;3.88;3.40;;;;;;;;;;12910144;22;20020;-87
2023/06/10 00:59:35;;;;;;;2.88;2.63;;;;;;;;;;12879924;23;20966;-87
2023/06/10 01:04:38;;;;;;;3.50;2.80;;;;;;;;;;12880298;22;20355;-87
2023/06/10 01:09:50;;;;;;;3.88;2.85;;;;;;;;;;12880153;23;20012;-87
2023/06/10 01:14:55;;;;;;;3.80;3.13;;;;;;;;;;12907128;22;20042;-87
2023/06/10 01:19:59;;;;;;;2.72;2.53;;;;;;;;;;12879199;23;20035;-87
2023/06/10 01:25:07;;;;;;;3.92;3.33;;;;;;;;;;12880260;22;20468;-87
2023/06/10 01:30:13;;;;;;;;;;;;;;;;;;12879414;23;20020;-86
2023/06/10 01:35:24;;;;;;;3.30;2.50;;;;;;;;;;12877724;22;20236;-87
2023/06/10 01:40:30;;;;;;;4.00;2.90;;;;;;;;;;12871891;23;20016;-87
2023/06/10 01:45:34;;;;;;;5.63;2.67;;;;;;;;;;12876369;22;21460;-87
2023/06/10 01:50:37;;;;;;;3.65;2.75;;;;;;;;;;12875342;23;20031;-86
2023/06/10 01:55:41;;;;;;;3.72;2.83;;;;;;;;;;12877221;22;20025;-87
2023/06/10 02:00:45;;;;;;;4.20;3.17;;;;;;;;;;12877821;23;20285;-87
2023/06/10 02:05:49;;;;;;;6.18;3.10;;;;;;;;;;12875729;22;20016;-87
2023/06/10 02:10:54;;;;;;;3.72;3.40;;;;;;;;;;12876819;23;20448;-87
2023/06/10 02:15:58;;;;;;;3.42;3.10;;;;;;;;;;12876525;22;20023;-87
2023/06/10 02:21:05;;;;;;;4.63;3.35;;;;;;;;;;12901760;23;20024;-86
2023/06/10 02:26:10;;;;;;;3.45;3.10;;;;;;;;;;12918197;22;20024;-87
2023/06/10 02:31:13;;;;;;;3.78;3.38;;;;;;;;;;12876973;23;20012;-87
2023/06/10 02:36:17;;;;;;;4.07;3.10;;;;;;;;;;12875111;22;20452;-87
2023/06/10 02:41:22;;;;;;;3.90;3.08;;;;;;;;;;12919839;23;20023;-88
2023/06/10 02:46:29;;;;;;;3.40;2.75;;;;;;;;;;12876015;22;20459;-87
2023/06/10 02:51:32;;;;;;;4.03;2.80;;;;;;;;;;12877629;23;20024;-87
2023/06/10 02:56:41;;;;;;;;;;;;;;;;;;12877086;22;20024;-87
2023/06/10 03:01:51;;;;;;;3.10;2.80;;;;;;;;;;12877689;23;19927;-87
2023/06/10 03:06:55;;;;;;;2.88;2.58;;;;;;;;;;12877777;22;20476;-88
2023/06/10 03:12:06;;;;;;;3.42;2.50;;;;;;;;;;12877032;23;20078;-91
2023/06/10 03:17:16;;;;;;;3.35;2.78;;;;;;;;;;12904130;22;20059;-89
2023/06/10 03:22:21;;;;;;;3.83;2.57;;;;;;;;;;12879565;23;20055;-90
2023/06/10 03:27:40;;;;;;;4.32;3.25;;;;;;;;;;12878732;23;20099;-89
2023/06/10 03:32:44;;;;;;;3.80;3.30;;;;;;;;;;12878413;23;20035;-89
2023/06/10 03:37:51;;;;;;;3.42;3.13;;;;;;;;;;12877973;23;20074;-90
2023/06/10 03:42:56;;;;;;;3.67;3.20;;;;;;;;;;12877970;23;20028;-87
2023/06/10 03:48:01;;;;;;;3.58;3.03;;;;;;;;;;12900025;22;20089;-87
2023/06/10 03:53:11;;;;;;;3.42;3.08;;;;;;;;;;12876205;23;20051;-86
2023/06/10 03:58:19;;;;;;;3.50;3.20;;;;;;;;;;12876147;23;20083;-88
2023/06/10 04:03:23;;;;;;;4.07;3.63;;;;;;;;;;12876613;23;20020;-87
2023/06/10 04:08:28;;;;;;;4.65;3.78;;;;;;;;;;12876347;23;20471;-86
2023/06/10 04:13:33;;;;;;;3.90;3.33;;;;;;;;;;12876025;23;20024;-88
2023/06/10 04:18:36;;;;;;;4.35;3.17;;;;;;;;;;12876422;23;20058;-87
2023/06/10 04:23:43;;;;;;;3.47;2.72;;;;;;;;;;12876969;23;20024;-87
2023/06/10 04:28:48;;;;;;;4.30;3.10;;;;;;;;;;12876850;23;20017;-87
2023/06/10 04:33:54;;;;;;;3.13;2.83;;;;;;;;;;12877528;23;20024;-87
2023/06/10 04:38:57;;;;;;;6.75;3.28;;;;;;;;;;12901240;23;20024;-87
2023/06/10 04:44:04;;;;;;;4.70;3.00;;;;;;;;;;12875787;22;20281;-87
2023/06/10 04:49:08;;;;;;;3.15;2.78;;;;;;;;;;12875393;23;20020;-87
2023/06/10 04:54:12;;;;;;;3.75;2.80;;;;;;;;;;12875355;22;20555;-87
2023/06/10 04:59:17;;;;;;;3.92;3.17;;;;;;;;;;12876886;23;20017;-86
2023/06/10 05:04:20;;;;;;;3.70;2.92;;;;;;;;;;12879841;22;20024;-87
2023/06/10 05:09:24;;;;;;;3.25;2.95;;;;;;;;;;12880184;23;20016;-87
2023/06/10 05:14:28;;;;;;;3.40;2.60;;;;;;;;;;12879180;22;20024;-87
2023/06/10 05:19:32;;;;;;;2.72;2.53;;;;;;;;;;12878652;23;20035;-89
2023/06/10 05:24:36;;;;;;;3.25;2.80;;;;;;;;;;12907648;22;20020;-90
2023/06/10 05:29:41;;;;;;;3.42;2.50;;;;;;;;;;12880614;23;20016;-88
2023/06/10 05:34:45;;;;;;;2.92;2.60;;;;;;;;;;12879925;22;20024;-90
2023/06/10 05:39:49;;;;;;;3.60;2.90;;;;;;;;;;12882673;23;20091;-90
2023/06/10 05:44:54;;;;;;;3.40;2.88;;;;;;;;;;12881578;22;20093;-90
2023/06/10 05:49:58;;;;;;;3.20;2.55;;;;;;;;;;12880104;23;20016;-90
2023/06/10 05:55:01;;;;;;;4.07;2.90;;;;;;;;;;12907483;22;20040;-90
2023/06/10 06:00:07;;;;;;;4.10;2.60;;;;;;;;;;12906389;23;20043;-89
2023/06/10 06:05:17;;;;;;;4.07;2.80;;;;;;;;;;12879113;22;20024;-90
2023/06/10 06:10:21;;;;;;;3.58;3.25;;;;;;;;;;12880846;23;20054;-90
2023/06/10 06:15:26;;;;;;;2.95;2.60;;;;;;;;;;12880788;22;20019;-90
2023/06/10 06:20:30;;;;;;;4.30;2.38;;;;;;;;;;12882176;23;20067;-89
2023/06/10 06:25:35;;;;;;;2.80;2.13;;;;;;;;;;12880428;22;20394;-90
2023/06/10 06:30:40;;;;;;;4.03;2.67;;;;;;;;;;12882210;23;20020;-91
2023/06/10 06:35:43;;;;;;;3.20;2.65;;;;;;;;;;12880071;22;20020;-90
2023/06/10 06:40:46;;;;;;;3.67;2.22;;;;;;;;;;12908676;23;20027;-90
2023/06/10 06:45:51;;;;;;;2.47;2.15;;;;;;;;;;12879438;22;20024;-90
2023/06/10 06:50:56;;;;;;;2.65;2.20;;;;;;;;;;12905927;23;20078;-90
2023/06/10 06:56:00;;;;;;;2.28;2.03;;;;;;;;;;12877340;22;20024;-90
2023/06/10 07:01:07;;;;;;;5.20;1.88;;;;;;;;;;12905600;23;20073;-89
2023/06/10 07:06:11;;;;;;;3.22;1.95;;;;;;;;;;12880203;22;20028;-89
2023/06/10 07:11:15;;;;;;;2.38;2.17;;;;;;;;;;12904855;23;20463;-90
2023/06/10 07:16:20;;;;;;;1.77;1.67;;;;;;;;;;12880011;22;20031;-89
2023/06/10 07:21:24;;;;;;;2.30;1.85;;;;;;;;;;12906389;23;20475;-89
2023/06/10 07:26:27;;;;;;;2.75;1.75;;;;;;;;;;12877575;22;20024;-88
2023/06/10 07:31:32;;;;;;;2.95;1.80;;;;;;;;;;12903665;23;20020;-89
2023/06/10 07:36:36;;;;;;;3.75;1.98;;;;;;;;;;12879875;22;20027;-89
2023/06/10 07:41:39;;;;;;;2.53;1.55;;;;;;;;;;12907658;23;20399;-88
2023/06/10 07:46:44;;;;;;;2.92;1.92;;;;;;;;;;12877111;22;20032;-89
2023/06/10 07:51:47;;;;;;;3.45;2.20;;;;;;;;;;12907259;23;20078;-88
2023/06/10 07:56:52;;;;;;;3.30;2.22;;;;;;;;;;12879390;22;20024;-89
2023/06/10 08:01:57;;;;;;;2.35;2.15;;;;;;;;;;12880708;23;20024;-89
2023/06/10 08:07:00;;;;;;;3.00;1.98;;;;;;;;;;12879000;23;20460;-89
2023/06/10 08:12:05;;;;;;;5.15;2.50;;;;;;;;;;12879960;23;20035;-89
2023/06/10 08:17:12;;;;;;;3.25;2.53;;;;;;;;;;12877808;23;20024;-88
2023/06/10 08:22:16;;;;;;;2.28;2.08;;;;;;;;;;12905132;23;20024;-87
2023/06/10 08:27:19;;;;;;;3.28;2.80;;;;;;;;;;12878165;23;20059;-88
2023/06/10 08:37:54;;;;;;;2.42;2.03;;;;;;;;;;12901980;22;20024;-83
2023/06/10 08:43:06;;;;;;;2.67;1.90;;;;;;;;;;12887208;23;20024;-83
2023/06/10 08:48:11;;;;;;;3.58;3.13;;;;;;;;;;12914099;22;20024;-83
2023/06/10 08:53:19;;;;;;;3.90;2.67;;;;;;;;;;12886402;23;20031;-83
2023/06/10 08:58:23;;;;;;;3.47;2.08;;;;;;;;;;12886826;23;20494;-83
2023/06/10 09:03:27;;;;;;;2.33;2.13;;;;;;;;;;12911331;23;20345;-83
2023/06/10 09:08:32;;;;;;;3.63;2.47;;;;;;;;;;12883896;23;20023;-83
2023/06/10 09:13:35;;;;;;;3.63;2.37;;;;;;;;;;12911448;23;20024;-83
2023/06/10 09:18:38;;;;;;;2.45;2.22;;;;;;;;;;12912643;22;20016;-83
2023/06/10 09:23:44;;;;;;;3.28;1.92;;;;;;;;;;12885199;23;20028;-83
2023/06/10 09:28:50;;;;;;;2.67;2.42;;;;;;;;;;12917142;22;20047;-83
2023/06/10 09:33:53;;;;;;;2.97;2.15;;;;;;;;;;12918962;23;20024;-83
2023/06/10 09:38:58;;;;;;;2.45;2.20;;;;;;;;;;12909573;22;20402;-83
2023/06/10 09:44:01;;;;;;;2.43;2.00;;;;;;;;;;12883263;22;20024;-83
2023/06/10 09:49:04;;;;;;;7.07;2.10;;;;;;;;;;12885776;23;20032;-83
2023/06/10 09:54:09;;;;;;;2.22;2.03;;;;;;;;;;12886040;22;20047;-83
2023/06/10 09:59:12;;;;;;;2.97;2.10;;;;;;;;;;12917377;23;20035;-83
2023/06/10 10:04:25;;;;;;;3.00;2.30;;;;;;;;;;12913112;22;20398;-83
2023/06/10 10:09:29;;;;;;;2.20;2.00;;;;;;;;;;12885850;23;20032;-83
2023/06/10 10:14:33;;;;;;;2.38;2.10;;;;;;;;;;12885243;22;20032;-84
2023/06/10 10:19:43;;;;;;;3.70;1.90;;;;;;;;;;12887496;23;20031;-83
2023/06/10 10:24:52;;;;;;;3.28;2.30;;;;;;;;;;12919265;22;20099;-83
2023/06/10 10:29:55;;;;;;;2.83;2.53;;;;;;;;;;12920451;23;20395;-83
2023/06/10 10:35:05;;;;;;;2.55;2.30;;;;;;;;;;12889562;22;20084;-82
2023/06/10 10:40:12;;;;;;;2.50;2.10;;;;;;;;;;12921823;23;20460;-83
2023/06/10 10:45:16;;;;;;;2.22;1.98;;;;;;;;;;12893675;22;20032;-84
2023/06/10 10:50:21;;;;;;;2.75;2.03;;;;;;;;;;12896630;23;20016;-83
2023/06/10 10:55:27;;;;;;;3.53;2.20;;;;;;;;;;12901583;22;20032;-83
2023/06/10 11:00:31;;;;;;;2.45;2.03;;;;;;;;;;12927012;23;20027;-83
2023/06/10 11:05:40;;;;;;;2.20;1.93;;;;;;;;;;12920241;22;20016;-83
2023/06/10 11:10:53;;;;;;;3.33;1.80;;;;;;;;;;12941535;23;20020;-84
2023/06/10 11:15:59;;;;;;;2.58;1.95;;;;;;;;;;12892438;22;20020;-83
2023/06/10 11:21:04;;;;;;;3.55;2.28;;;;;;;;;;12921879;23;20536;-83
2023/06/10 11:26:32;;;;;;;2.25;1.58;;;;;;;;;;12939259;22;20047;-83
2023/06/10 11:31:44;;;;;;;1.63;1.50;;;;;;;;;;12921040;23;20039;-83
2023/06/10 11:36:47;;;;;;;3.45;1.90;;;;;;;;;;12917314;22;20019;-83
2023/06/10 11:41:52;;;;;;;2.20;1.90;;;;;;;;;;12891228;23;20039;-84
2023/06/10 11:46:57;;;;;;;2.22;1.80;;;;;;;;;;12890318;22;20031;-84
2023/06/10 11:52:01;;;;;;;1.98;1.75;;;;;;;;;;12916509;23;20024;-83
2023/06/10 11:57:08;;;;;;;3.08;1.90;;;;;;;;;;12888621;23;20024;-84
2023/06/10 12:02:16;;;;;;;3.30;1.88;;;;;;;;;;12928494;23;20024;-84
2023/06/10 12:07:22;;;;;;;1.90;1.60;;;;;;;;;;12888854;23;20027;-84
2023/06/10 12:12:29;;;;;;;3.35;1.90;;;;;;;;;;12893259;23;20020;-84
2023/06/10 12:17:39;;;;;;;3.72;2.13;;;;;;;;;;12922389;22;20028;-84
2023/06/10 12:22:43;;;;;;;1.92;1.73;;;;;;;;;;12922062;23;20035;-85
2023/06/10 12:27:53;;;;;;;1.88;1.67;;;;;;;;;;12894120;23;20046;-83
2023/06/10 12:32:57;;;;;;;2.80;1.95;;;;;;;;;;12921530;23;20136;-84
2023/06/10 12:38:04;;;;;;;2.57;1.60;;;;;;;;;;12927176;22;20054;-84
2023/06/10 12:43:10;;;;;;;2.17;1.80;;;;;;;;;;12891764;23;20035;-83
2023/06/10 12:48:20;;;;;;;2.20;1.88;;;;;;;;;;12919461;22;20032;-84
2023/06/10 12:53:26;;;;;;;2.00;1.58;;;;;;;;;;12925907;23;20525;-83
2023/06/10 12:58:30;;;;;;;2.67;1.67;;;;;;;;;;12890720;23;20108;-85
2023/06/10 13:03:34;;;;;;;;;;;;;;;;;;12925134;23;20024;-84
2023/06/10 13:08:37;;;;;;;2.10;1.33;;;;;;;;;;12889934;23;19915;-84
2023/06/10 13:13:41;;;;;;;1.40;1.30;;;;;;;;;;12924702;23;20027;-84
2023/06/10 13:18:45;;;;;;;;;;;;;;;;;;12908123;22;20594;-85
2023/06/10 13:23:48;;;;;;;1.58;1.30;;;;;;;;;;12913728;23;19942;-85
2023/06/10 13:28:53;;;;;;;1.65;1.55;;;;;;;;;;12879345;23;20028;-85
2023/06/10 13:33:57;;;;;;;1.85;1.58;;;;;;;;;;12879867;23;20016;-87
2023/06/10 13:39:00;;;;;;;3.40;1.70;;;;;;;;;;12912624;23;20076;-85
2023/06/10 13:44:06;;;;;;;2.88;1.50;;;;;;;;;;12880925;22;20932;-86
2023/06/10 13:49:09;;;;;;;1.70;1.05;;;;;;;;;;12881991;23;20035;-85
2023/06/10 13:54:14;;;;;;;1.55;1.30;;;;;;;;;;12881889;22;20050;-86
2023/06/10 13:59:20;;;;;;;1.75;1.50;;;;;;;;;;12906488;23;20024;-86
2023/06/10 14:04:24;;;;;;;2.03;1.50;;;;;;;;;;12911798;22;20013;-87
2023/06/10 14:09:27;;;;;;;1.60;1.40;;;;;;;;;;12907018;23;20028;-85
2023/06/10 14:14:32;;;;;;;2.03;1.65;;;;;;;;;;12882716;22;20437;-85
2023/06/10 14:19:36;;;;;;;2.03;1.48;;;;;;;;;;12885429;23;20463;-84
2023/06/10 14:24:39;;;;;;;2.25;1.85;;;;;;;;;;12914500;22;20016;-85
2023/06/10 14:29:43;;;;;;;1.98;1.67;;;;;;;;;;12912560;23;20032;-85
2023/06/10 14:34:47;;;;;;;1.80;1.60;;;;;;;;;;12908444;22;20020;-84
2023/06/10 14:39:50;;;;;;;2.40;1.58;;;;;;;;;;12908950;23;20031;-85
2023/06/10 14:44:55;;;;;;;2.78;1.77;;;;;;;;;;12910047;22;20033;-84
2023/06/10 14:49:58;;;;;;;2.25;1.80;;;;;;;;;;12883389;23;20047;-85
2023/06/10 14:55:02;;;;;;;2.30;1.92;;;;;;;;;;12882172;22;20012;-84
2023/06/10 15:00:08;;;;;;;1.98;1.50;;;;;;;;;;12909575;23;20031;-84
2023/06/10 15:05:11;;;;;;;2.13;1.63;;;;;;;;;;12881725;22;20027;-85
2023/06/10 15:10:16;;;;;;;3.10;1.80;;;;;;;;;;12881410;23;20051;-85
2023/06/10 15:15:20;;;;;;;2.03;1.73;;;;;;;;;;12882081;22;20530;-85
2023/06/10 15:20:24;;;;;;;2.40;2.00;;;;;;;;;;12909330;23;20031;-84
2023/06/10 15:25:27;;;;;;;2.10;1.90;;;;;;;;;;12882387;22;20059;-83
2023/06/10 15:30:34;;;;;;;2.88;2.35;;;;;;;;;;12882998;23;20119;-82
2023/06/10 15:35:37;;;;;;;2.50;1.85;;;;;;;;;;12881128;22;20156;-83
2023/06/10 15:40:43;;;;;;;3.80;2.13;;;;;;;;;;12928907;23;20016;-83
2023/06/10 15:45:48;;;;;;;2.95;2.30;;;;;;;;;;12908714;22;20016;-83
2023/06/10 15:50:51;;;;;;;1.67;1.52;;;;;;;;;;12908139;23;20024;-83
2023/06/10 15:55:55;;;;;;;4.25;2.42;;;;;;;;;;12905463;22;20460;-83
2023/06/10 16:01:00;;;;;;;1.65;1.38;;;;;;;;;;12882263;23;20040;-82
2023/06/10 16:06:04;;;;;;;2.22;2.03;;;;;;;;;;12879664;22;20028;-83
2023/06/10 16:11:08;;;;;;;2.70;2.10;;;;;;;;;;12879095;23;20027;-83
2023/06/10 16:16:13;;;;;;;1.77;1.45;;;;;;;;;;12878199;22;20031;-83
2023/06/10 16:21:17;;;;;;;2.05;1.55;;;;;;;;;;12869465;23;20027;-83
2023/06/10 16:26:20;;;;;;;1.95;1.80;;;;;;;;;;12875680;22;20355;-83
2023/06/10 16:31:25;;;;;;;1.27;1.02;;;;;;;;;;12866387;23;20032;-83
2023/06/10 16:36:29;;;;;;;2.03;1.60;;;;;;;;;;12874779;22;20104;-82
2023/06/10 16:41:32;;;;;;;2.30;2.10;;;;;;;;;;12863158;23;20484;-83
2023/06/10 16:46:37;;;;;;;1.77;1.65;;;;;;;;;;12875080;22;20016;-84
2023/06/10 16:51:40;;;;;;;2.15;1.85;;;;;;;;;;12864659;23;20027;-82
2023/06/10 16:56:43;;;;;;;1.52;1.27;;;;;;;;;;12874347;22;20040;-83
2023/06/10 17:01:48;;;;;;;1.63;1.35;;;;;;;;;;12907190;23;20024;-84
2023/06/10 17:06:51;;;;;;;3.58;1.40;;;;;;;;;;12878080;22;20103;-83
2023/06/10 17:11:55;;;;;;;3.33;1.63;;;;;;;;;;12880568;23;20463;-83
2023/06/10 17:16:59;;;;;;;1.88;1.48;;;;;;;;;;12917597;22;20047;-83
2023/06/10 17:22:03;;;;;;;1.63;1.52;;;;;;;;;;12904921;23;20062;-82
2023/06/10 17:27:06;;;;;;;1.95;1.60;;;;;;;;;;12906244;22;20085;-83
2023/06/10 17:32:11;;;;;;;2.35;1.80;;;;;;;;;;12892933;23;20027;-82
2023/06/10 17:37:15;;;;;;;1.60;1.27;;;;;;;;;;12891776;23;20031;-82
2023/06/10 17:42:18;;;;;;;1.60;1.45;;;;;;;;;;12920645;23;20035;-83
2023/06/10 17:47:22;;;;;;;1.40;1.25;;;;;;;;;;12893606;23;20467;-83
2023/06/10 17:52:26;;;;;;;1.58;1.35;;;;;;;;;;12920407;23;20034;-83
2023/06/10 17:57:31;;;;;;;3.40;1.52;;;;;;;;;;12916420;22;20028;-83
2023/06/10 18:02:35;;;;;;;;;;;;;;;;;;12889583;23;20718;-84
2023/06/10 18:07:39;;;;;;;2.20;1.47;;;;;;;;;;12888060;23;19942;-83
2023/06/10 18:12:42;;;;;;;1.60;1.27;;;;;;;;;;12887982;23;20252;-84
2023/06/10 18:17:47;;;;;;;1.50;1.40;;;;;;;;;;12913009;22;20738;-83
2023/06/10 18:22:50;;;;;;;1.40;1.23;;;;;;;;;;12911335;23;20074;-83
2023/06/10 18:27:53;;;;;;;1.77;1.40;;;;;;;;;;12909889;22;20479;-82
2023/06/10 18:32:58;;;;;;;1.17;1.08;;;;;;;;;;12886201;23;20038;-84
2023/06/10 18:38:02;;;;;;;1.95;1.50;;;;;;;;;;12885682;23;20020;-84
2023/06/10 18:43:05;;;;;;;1.83;1.40;;;;;;;;;;12886285;23;20065;-84
2023/06/10 18:48:10;;;;;;;1.70;1.58;;;;;;;;;;12923321;22;20024;-82
2023/06/10 18:53:13;;;;;;;1.70;1.60;;;;;;;;;;12891266;23;20024;-83
2023/06/10 18:58:17;;;;;;;3.03;1.33;;;;;;;;;;12890267;23;20503;-82
2023/06/10 19:03:22;;;;;;;2.28;1.40;;;;;;;;;;12891181;23;20043;-82
2023/06/10 19:08:25;;;;;;;2.90;1.85;;;;;;;;;;12917052;22;20341;-82
2023/06/10 19:13:28;;;;;;;2.35;1.60;;;;;;;;;;12927616;23;20024;-83
2023/06/10 19:18:33;;;;;;;1.98;1.50;;;;;;;;;;12892991;23;20020;-82
2023/06/10 19:23:36;;;;;;;1.53;1.43;;;;;;;;;;12926879;23;20020;-83
2023/06/10 19:28:40;;;;;;;2.60;1.88;;;;;;;;;;12917046;23;20028;-82
2023/06/10 19:33:44;;;;;;;2.90;2.17;;;;;;;;;;12889870;23;20021;-82
2023/06/10 19:38:48;;;;;;;3.17;2.07;;;;;;;;;;12887590;23;20023;-83
2023/06/10 19:43:51;;;;;;;1.75;1.65;;;;;;;;;;12915382;23;20032;-82
2023/06/10 19:48:58;;;;;;;2.45;2.25;;;;;;;;;;12890030;23;20024;-83
2023/06/10 19:54:01;;;;;;;2.20;2.00;;;;;;;;;;12916553;23;20016;-83
2023/06/10 19:59:05;;;;;;;2.55;2.20;;;;;;;;;;12923147;23;20020;-82
2023/06/10 20:04:10;;;;;;;2.33;1.70;;;;;;;;;;12892492;22;20024;-84
2023/06/10 20:09:13;;;;;;;2.22;2.03;;;;;;;;;;12923001;23;20111;-83
2023/06/10 20:14:16;;;;;;;2.20;2.00;;;;;;;;;;12918247;22;20078;-82
2023/06/10 20:19:21;;;;;;;2.58;2.13;;;;;;;;;;12922307;23;20024;-81
2023/06/10 20:24:24;;;;;;;2.95;2.05;;;;;;;;;;12888558;22;20397;-83
2023/06/10 20:29:27;;;;;;;2.10;1.90;;;;;;;;;;12889507;23;20024;-83
2023/06/10 20:34:32;;;;;;;3.10;2.05;;;;;;;;;;12879285;22;20016;-89
2023/06/10 20:39:36;;;;;;;2.35;2.15;;;;;;;;;;12887306;23;20024;-91
2023/06/10 20:44:40;;;;;;;2.15;1.92;;;;;;;;;;12887428;22;20028;-90
2023/06/10 20:49:45;;;;;;;2.35;2.15;;;;;;;;;;12914199;23;20028;-90
2023/06/10 20:54:48;;;;;;;2.83;2.37;;;;;;;;;;12885088;22;20475;-90
2023/06/10 20:59:52;;;;;;;2.47;2.28;;;;;;;;;;12887260;23;20481;-90
2023/06/10 21:04:59;;;;;;;2.22;2.03;;;;;;;;;;12913234;22;20026;-90
2023/06/10 21:10:03;;;;;;;3.03;2.22;;;;;;;;;;12886046;23;20027;-89
2023/06/10 21:15:08;;;;;;;2.40;2.08;;;;;;;;;;12885398;22;20016;-89
2023/06/10 21:20:15;;;;;;;4.83;2.60;;;;;;;;;;12887005;23;20042;-90
2023/06/10 21:25:19;;;;;;;4.18;2.58;;;;;;;;;;12884402;22;20344;-90
2023/06/10 21:30:23;;;;;;;2.72;2.45;;;;;;;;;;12886284;23;20051;-89
2023/06/10 21:35:28;;;;;;;2.47;2.05;;;;;;;;;;12913055;22;20020;-90
2023/06/10 21:40:32;;;;;;;3.23;2.40;;;;;;;;;;12886379;23;20034;-89
2023/06/10 21:45:35;;;;;;;4.57;2.40;;;;;;;;;;12884523;22;20078;-89
2023/06/10 21:50:40;;;;;;;2.72;2.10;;;;;;;;;;12913418;23;20027;-90
2023/06/10 21:55:44;;;;;;;2.63;2.20;;;;;;;;;;12910672;22;20027;-90
2023/06/10 22:00:48;;;;;;;4.00;2.42;;;;;;;;;;12885105;23;20024;-90
2023/06/10 22:05:53;;;;;;;2.67;2.20;;;;;;;;;;12884413;22;20027;-89
2023/06/10 22:10:56;;;;;;;2.50;2.30;;;;;;;;;;12884927;23;20024;-90
2023/06/10 22:16:00;;;;;;;2.35;2.15;;;;;;;;;;12910371;22;20734;-90
2023/06/10 22:21:05;;;;;;;3.13;2.65;;;;;;;;;;12884347;23;20483;-89
2023/06/10 22:26:08;;;;;;;2.58;2.38;;;;;;;;;;12882217;22;20343;-89
2023/06/10 22:31:12;;;;;;;5.50;2.83;;;;;;;;;;12909357;23;20131;-89
2023/06/10 22:36:17;;;;;;;2.90;2.53;;;;;;;;;;12882208;22;20047;-90
2023/06/10 22:41:21;;;;;;;3.90;2.70;;;;;;;;;;12911402;23;20134;-90
2023/06/10 22:46:25;;;;;;;3.30;2.28;;;;;;;;;;12884178;22;20043;-90
2023/06/10 22:51:30;;;;;;;3.78;3.00;;;;;;;;;;12884249;23;20023;-90
2023/06/10 22:56:34;;;;;;;2.43;2.23;;;;;;;;;;12882849;22;20031;-89
2023/06/10 23:01:37;;;;;;;2.35;2.13;;;;;;;;;;12881309;23;20032;-89
2023/06/10 23:06:45;;;;;;;3.90;2.38;;;;;;;;;;12907529;22;20028;-90
2023/06/10 23:11:48;;;;;;;3.00;2.40;;;;;;;;;;12908648;23;20686;-89
2023/06/10 23:16:52;;;;;;;3.30;2.58;;;;;;;;;;12908085;22;20028;-90
2023/06/10 23:21:58;;;;;;;2.88;2.30;;;;;;;;;;12881860;23;20039;-90
2023/06/10 23:27:02;;;;;;;3.53;2.47;;;;;;;;;;12881795;22;20055;-89
2023/06/10 23:32:06;;;;;;;2.72;2.45;;;;;;;;;;12881653;23;20078;-90
2023/06/10 23:37:12;;;;;;;2.35;2.15;;;;;;;;;;12907774;22;20034;-90
2023/06/10 23:42:16;;;;;;;2.55;2.30;;;;;;;;;;12881824;23;20053;-90
2023/06/10 23:47:20;;;;;;;2.63;2.42;;;;;;;;;;12880670;23;20044;-90
2023/06/10 23:52:25;;;;;;;2.70;2.50;;;;;;;;;;12908584;23;20035;-90
2023/06/10 23:57:29;;;;;;;2.58;2.38;;;;;;;;;;12880331;23;20043;-89
